Time;durP1;ratioP1;P1;durP2;ratioP2;P2;SDS_P1;SDS_P2;PMS_P1;PMS_P2;Temp;Humidity;BMP_temperature;BMP_pressure;BME280_temperature;BME280_humidity;BME280_pressure;Samples;Min_cycle;Max_cycle;Signal;HPM_P1;HPM_P2
2022/05/04 00:00:26;;;;;;;2.47;2.05;;;16.90;54.20;;;;;;5092168;28;20256;-73
2022/05/04 00:02:51;;;;;;;3.05;1.90;;;16.90;54.20;;;;;;5092913;28;20174;-71
2022/05/04 00:05:17;;;;;;;4.28;2.22;;;16.90;54.20;;;;;;5093168;28;20315;-73
2022/05/04 00:07:42;;;;;;;3.25;2.20;;;16.90;54.20;;;;;;5092153;28;20177;-70
2022/05/04 00:10:08;;;;;;;3.67;2.22;;;16.90;54.20;;;;;;5093161;28;20205;-69
2022/05/04 00:12:34;;;;;;;2.53;1.80;;;16.90;54.20;;;;;;5093250;28;20174;-70
2022/05/04 00:15:00;;;;;;;2.55;2.05;;;16.90;54.20;;;;;;5092122;28;20219;-69
2022/05/04 00:17:25;;;;;;;2.33;1.92;;;16.90;54.30;;;;;;5093067;28;20206;-69
2022/05/04 00:19:51;;;;;;;2.40;1.85;;;16.90;54.30;;;;;;5092677;28;20180;-69
2022/05/04 00:22:18;;;;;;;3.45;2.00;;;16.90;54.30;;;;;;5092160;28;20161;-69
2022/05/04 00:24:43;;;;;;;3.47;2.08;;;16.90;54.20;;;;;;5092332;28;20625;-69
2022/05/04 00:27:09;;;;;;;3.65;2.30;;;16.90;54.20;;;;;;5092466;28;20239;-70
2022/05/04 00:29:34;;;;;;;2.05;1.80;;;16.90;54.30;;;;;;5091844;28;20181;-70
2022/05/04 00:32:00;;;;;;;3.85;2.13;;;16.90;54.30;;;;;;5092716;28;20173;-71
2022/05/04 00:34:26;;;;;;;2.20;2.00;;;16.80;54.20;;;;;;5092760;28;20169;-69
2022/05/04 00:36:51;;;;;;;2.83;1.90;;;16.80;54.20;;;;;;5091635;28;20182;-69
2022/05/04 00:39:17;;;;;;;2.97;2.00;;;16.80;54.20;;;;;;5092384;28;20534;-69
2022/05/04 00:41:42;;;;;;;2.20;1.80;;;16.80;54.20;;;;;;5092134;28;20169;-70
2022/05/04 00:44:08;;;;;;;4.18;1.88;;;16.80;54.20;;;;;;5091628;28;20203;-70
2022/05/04 00:46:33;;;;;;;4.03;2.28;;;16.80;54.30;;;;;;5092484;28;20214;-70
2022/05/04 00:48:59;;;;;;;3.45;2.05;;;16.80;54.20;;;;;;5091448;28;20173;-69
2022/05/04 00:51:24;;;;;;;2.67;1.70;;;16.80;54.30;;;;;;5090363;28;20169;-69
2022/05/04 00:53:50;;;;;;;2.88;2.00;;;16.80;54.20;;;;;;5090610;28;20174;-69
2022/05/04 00:56:15;;;;;;;2.88;1.90;;;16.80;54.20;;;;;;5092190;28;20502;-71
2022/05/04 00:58:56;;;;;;;2.72;2.13;;;16.70;54.20;;;;;;5089658;28;20224;-72
2022/05/04 01:01:29;;;;;;;2.60;1.75;;;16.80;54.20;;;;;;5092443;28;20260;-72
2022/05/04 01:03:58;;;;;;;3.53;2.10;;;16.80;54.20;;;;;;5090698;28;20178;-71
2022/05/04 01:06:24;;;;;;;3.28;1.65;;;16.80;54.30;;;;;;5091905;28;20692;-70
2022/05/04 01:08:49;;;;;;;2.92;1.90;;;16.80;54.20;;;;;;5091459;28;20176;-69
2022/05/04 01:11:16;;;;;;;3.25;2.15;;;16.80;54.20;;;;;;5091117;28;20201;-70
2022/05/04 01:13:41;;;;;;;2.10;1.90;;;16.80;54.20;;;;;;5090973;28;20182;-69
2022/05/04 01:16:07;;;;;;;2.03;1.83;;;16.80;54.30;;;;;;5092018;28;20178;-70
2022/05/04 01:18:32;;;;;;;1.95;1.77;;;16.80;54.30;;;;;;5091124;28;20174;-69
2022/05/04 01:20:58;;;;;;;2.83;2.22;;;16.80;54.30;;;;;;5091607;28;20166;-70
2022/05/04 01:23:25;;;;;;;3.13;2.03;;;16.80;54.30;;;;;;5091780;28;20322;-70
2022/05/04 01:25:53;;;;;;;3.90;2.20;;;16.70;54.20;;;;;;5089407;28;20210;-69
2022/05/04 01:28:22;;;;;;;1.92;1.52;;;16.70;54.20;;;;;;5092115;28;20166;-70
2022/05/04 01:30:47;;;;;;;2.85;2.13;;;16.70;54.20;;;;;;5090995;28;20605;-70
2022/05/04 01:33:13;;;;;;;2.40;1.80;;;16.70;54.20;;;;;;5091301;28;20662;-70
2022/05/04 01:35:38;;;;;;;3.45;1.92;;;16.70;54.30;;;;;;5091496;28;20235;-71
2022/05/04 01:38:04;;;;;;;2.35;2.15;;;16.70;54.20;;;;;;5091925;28;20209;-70
2022/05/04 01:40:30;;;;;;;2.45;1.95;;;16.70;54.30;;;;;;5091096;28;20281;-71
2022/05/04 01:42:55;;;;;;;2.25;1.85;;;16.70;54.30;;;;;;5091745;28;20287;-70
2022/05/04 01:45:21;;;;;;;2.90;1.75;;;16.70;54.20;;;;;;5091910;28;20197;-69
2022/05/04 01:47:48;;;;;;;3.00;1.73;;;16.70;54.30;;;;;;5090779;28;20186;-69
2022/05/04 01:50:13;;;;;;;2.88;2.10;;;16.70;54.30;;;;;;5091648;28;20641;-69
2022/05/04 01:52:39;;;;;;;5.28;2.03;;;16.70;54.30;;;;;;5091496;28;20192;-69
2022/05/04 01:55:05;;;;;;;2.50;1.77;;;16.70;54.30;;;;;;5091054;28;20234;-71
2022/05/04 01:57:31;;;;;;;2.83;2.17;;;16.70;54.30;;;;;;5090418;28;20181;-72
2022/05/04 01:59:57;;;;;;;3.30;1.83;;;16.70;54.30;;;;;;5091147;28;20253;-71
2022/05/04 02:02:22;;;;;;;2.45;1.80;;;16.70;54.40;;;;;;5095724;28;20251;-72
2022/05/04 02:04:49;;;;;;;2.65;2.03;;;16.60;54.20;;;;;;5095269;28;20177;-72
2022/05/04 02:07:14;;;;;;;2.95;1.98;;;16.60;54.20;;;;;;5094854;28;20174;-70
2022/05/04 02:09:42;;;;;;;2.20;2.00;;;16.60;54.30;;;;;;5095167;28;20184;-69
2022/05/04 02:12:08;;;;;;;4.10;2.28;;;16.70;54.30;;;;;;5094427;28;20174;-69
2022/05/04 02:14:34;;;;;;;2.28;1.90;;;16.60;54.20;;;;;;5094661;28;20177;-69
2022/05/04 02:17:00;;;;;;;2.20;2.00;;;16.60;54.30;;;;;;5095426;28;20273;-69
2022/05/04 02:19:25;;;;;;;2.97;1.95;;;16.60;54.30;;;;;;5094283;28;20268;-70
2022/05/04 02:21:51;;;;;;;2.58;2.28;;;16.60;54.30;;;;;;5094372;28;20173;-70
2022/05/04 02:24:16;;;;;;;3.80;2.13;;;16.60;54.30;;;;;;5096240;28;20197;-70
2022/05/04 02:26:42;;;;;;;2.17;1.75;;;16.60;54.30;;;;;;5096342;28;20205;-70
2022/05/04 02:29:07;;;;;;;2.03;1.83;;;16.60;54.30;;;;;;5095247;28;20177;-71
2022/05/04 02:31:33;;;;;;;2.30;1.83;;;16.60;54.30;;;;;;5095980;28;20653;-70
2022/05/04 02:33:58;;;;;;;1.83;1.65;;;16.60;54.30;;;;;;5095589;28;20173;-70
2022/05/04 02:39:08;;;;;;;2.30;1.90;;;16.60;54.30;;;;;;5095823;28;20168;-70
2022/05/04 02:41:34;;;;;;;2.95;2.22;;;16.60;54.30;;;;;;5095881;28;20537;-70
2022/05/04 02:44:02;;;;;;;2.10;1.70;;;16.60;54.30;;;;;;5094659;28;20279;-70
2022/05/04 02:46:28;;;;;;;3.05;1.60;;;16.60;54.30;;;;;;5095725;28;20292;-70
2022/05/04 02:48:53;;;;;;;2.08;1.73;;;16.50;54.30;;;;;;5095218;28;20170;-70
2022/05/04 02:51:19;;;;;;;2.45;2.03;;;16.60;54.30;;;;;;5095131;28;20208;-70
2022/05/04 02:53:44;;;;;;;2.65;2.05;;;16.60;54.30;;;;;;5095436;28;20169;-69
2022/05/04 02:56:15;;;;;;;2.53;2.05;;;16.60;54.30;;;;;;5095534;28;20201;-72
2022/05/04 02:58:44;;;;;;;2.13;1.80;;;16.60;54.30;;;;;;5095029;28;20263;-72
2022/05/04 03:04:08;;;;;;;2.58;1.92;;;16.50;54.30;;;;;;5094275;28;20224;-71
2022/05/04 03:06:41;;;;;;;3.28;2.10;;;16.50;54.30;;;;;;5095289;28;20668;-71
2022/05/04 03:09:08;;;;;;;3.22;2.17;;;16.50;54.30;;;;;;5095355;28;20205;-69
2022/05/04 03:14:20;;;;;;;2.90;2.08;;;16.50;54.30;;;;;;5095116;28;20232;-70
2022/05/04 03:16:48;;;;;;;1.98;1.63;;;16.50;54.20;;;;;;5094644;28;20681;-69
2022/05/04 03:19:14;;;;;;;3.95;1.90;;;16.50;54.30;;;;;;5094303;28;20174;-70
2022/05/04 03:21:39;;;;;;;2.50;1.80;;;16.50;54.30;;;;;;5094681;28;20169;-70
2022/05/04 03:24:05;;;;;;;3.17;1.90;;;16.50;54.30;;;;;;5094870;28;20270;-69
2022/05/04 03:26:31;;;;;;;2.13;1.80;;;16.50;54.30;;;;;;5093994;28;20206;-70
2022/05/04 03:28:56;;;;;;;3.67;2.40;;;16.50;54.30;;;;;;5094495;28;20177;-69
2022/05/04 03:31:22;;;;;;;2.17;1.73;;;16.50;54.30;;;;;;5094508;28;20256;-71
2022/05/04 03:33:47;;;;;;;2.03;1.83;;;16.50;54.30;;;;;;5094403;28;20169;-69
2022/05/04 03:36:13;;;;;;;3.05;2.00;;;16.50;54.30;;;;;;5094669;28;20177;-71
2022/05/04 03:38:38;;;;;;;2.20;1.80;;;16.50;54.30;;;;;;5093598;28;20474;-69
2022/05/04 03:41:04;;;;;;;2.28;1.88;;;16.50;54.30;;;;;;5094567;28;20181;-69
2022/05/04 03:43:29;;;;;;;2.22;1.88;;;16.50;54.30;;;;;;5094217;28;20607;-70
2022/05/04 03:45:55;;;;;;;2.28;1.60;;;16.40;54.20;;;;;;5093558;28;20224;-69
2022/05/04 03:48:24;;;;;;;2.60;1.92;;;16.50;54.30;;;;;;5094401;28;20587;-69
2022/05/04 03:50:49;;;;;;;2.92;2.10;;;16.50;54.30;;;;;;5094066;28;20231;-69
2022/05/04 03:53:15;;;;;;;2.38;1.73;;;16.50;54.30;;;;;;5093143;28;20182;-69
2022/05/04 03:55:40;;;;;;;1.95;1.73;;;16.50;54.30;;;;;;5093905;28;20181;-70
2022/05/04 03:58:05;;;;;;;1.83;1.70;;;16.50;54.30;;;;;;5094382;28;20632;-72
2022/05/04 04:00:31;;;;;;;2.42;1.85;;;16.40;54.20;;;;;;5093321;28;20259;-72
2022/05/04 04:02:56;;;;;;;2.28;1.80;;;16.50;54.30;;;;;;5094030;28;20165;-71
2022/05/04 04:05:23;;;;;;;2.28;1.80;;;16.40;54.20;;;;;;5093984;28;20209;-70
2022/05/04 04:07:49;;;;;;;2.33;2.00;;;16.40;54.20;;;;;;5093054;28;20640;-69
2022/05/04 04:10:14;;;;;;;2.85;1.92;;;16.40;54.20;;;;;;5093910;28;20185;-69
2022/05/04 04:12:40;;;;;;;3.13;2.05;;;16.40;54.20;;;;;;5093813;28;20609;-69
2022/05/04 04:15:06;;;;;;;2.33;1.70;;;16.40;54.20;;;;;;5093456;28;20178;-69
2022/05/04 04:17:31;;;;;;;1.80;1.70;;;16.40;54.20;;;;;;5093868;28;20186;-70
2022/05/04 04:22:41;;;;;;;2.20;2.03;;;16.40;54.20;;;;;;5092790;28;20652;-70
2022/05/04 04:25:07;;;;;;;2.75;1.98;;;16.40;54.20;;;;;;5093583;28;20170;-70
2022/05/04 04:27:34;;;;;;;2.22;2.00;;;16.40;54.20;;;;;;5093730;28;20181;-69
2022/05/04 04:30:00;;;;;;;2.63;1.80;;;16.40;54.20;;;;;;5092904;28;20173;-71
2022/05/04 04:32:25;;;;;;;3.67;2.13;;;16.40;54.20;;;;;;5093664;28;20188;-71
2022/05/04 04:34:51;;;;;;;3.05;2.08;;;16.40;54.20;;;;;;5092333;28;20498;-69
2022/05/04 04:37:16;;;;;;;3.53;2.00;;;16.40;54.20;;;;;;5093457;28;20166;-70
2022/05/04 04:39:42;;;;;;;2.83;2.22;;;16.40;54.20;;;;;;5093339;28;20169;-70
2022/05/04 04:42:07;;;;;;;2.78;2.00;;;16.40;54.20;;;;;;5092616;28;20174;-70
2022/05/04 04:44:33;;;;;;;1.90;1.80;;;16.40;54.20;;;;;;5093474;28;20651;-70
2022/05/04 04:46:58;;;;;;;2.05;1.85;;;16.40;54.20;;;;;;5093105;28;20229;-70
2022/05/04 04:49:25;;;;;;;2.13;1.88;;;16.40;54.20;;;;;;5092636;28;20166;-70
2022/05/04 04:51:51;;;;;;;2.47;1.70;;;16.40;54.20;;;;;;5093024;28;20182;-69
2022/05/04 04:54:16;;;;;;;2.58;1.90;;;16.40;54.10;;;;;;5093006;28;20228;-71
2022/05/04 04:56:42;;;;;;;2.78;1.92;;;16.40;54.20;;;;;;5092360;28;20170;-72
2022/05/04 04:59:07;;;;;;;4.22;2.03;;;16.40;54.20;;;;;;5093057;28;20224;-73
2022/05/04 05:01:33;;;;;;;1.73;1.63;;;16.40;54.10;;;;;;5093161;28;20227;-73
2022/05/04 05:03:58;;;;;;;3.05;2.03;;;16.40;54.10;;;;;;5091008;28;20662;-72
2022/05/04 05:06:25;;;;;;;2.13;1.90;;;16.40;54.10;;;;;;5092971;28;20660;-71
2022/05/04 05:08:50;;;;;;;2.40;1.70;;;16.40;54.10;;;;;;5092519;28;20625;-69
2022/05/04 05:11:16;;;;;;;2.20;1.98;;;16.50;54.20;;;;;;5092260;28;20235;-71
2022/05/04 05:16:25;;;;;;;2.38;1.70;;;16.40;54.00;;;;;;5092846;28;20189;-70
2022/05/04 05:18:51;;;;;;;2.38;2.05;;;16.40;54.10;;;;;;5091770;28;20637;-70
2022/05/04 05:21:16;;;;;;;2.72;1.90;;;16.40;54.00;;;;;;5092865;28;20190;-70
2022/05/04 05:23:42;;;;;;;1.95;1.70;;;16.40;54.00;;;;;;5092482;28;20205;-69
2022/05/04 05:26:07;;;;;;;2.30;1.80;;;16.50;54.00;;;;;;5092082;28;20216;-71
2022/05/04 05:28:33;;;;;;;2.17;1.85;;;16.40;54.00;;;;;;5092784;28;20174;-71
2022/05/04 05:30:58;;;;;;;3.25;1.80;;;16.50;54.00;;;;;;5091832;28;20253;-72
2022/05/04 05:33:24;;;;;;;2.70;2.00;;;16.50;54.00;;;;;;5092616;28;20540;-71
2022/05/04 05:35:50;;;;;;;1.92;1.80;;;16.50;54.00;;;;;;5094194;28;20174;-70
2022/05/04 05:38:15;;;;;;;2.63;2.08;;;16.50;54.00;;;;;;5096470;28;21031;-72
2022/05/04 05:40:41;;;;;;;2.20;1.95;;;16.50;54.00;;;;;;5096761;28;20173;-72
2022/05/04 05:43:07;;;;;;;3.35;2.10;;;16.50;54.00;;;;;;5096846;28;20538;-71
2022/05/04 05:45:33;;;;;;;2.28;1.65;;;16.50;54.00;;;;;;5096114;28;20251;-71
2022/05/04 05:47:58;;;;;;;2.58;1.90;;;16.50;54.00;;;;;;5096584;28;20169;-70
2022/05/04 05:50:24;;;;;;;3.38;2.08;;;16.50;54.00;;;;;;5096646;28;20174;-70
2022/05/04 05:52:49;;;;;;;2.60;1.90;;;16.50;53.80;;;;;;5095741;28;20177;-70
2022/05/04 05:55:15;;;;;;;3.67;1.80;;;16.50;53.70;;;;;;5096639;28;20174;-72
2022/05/04 05:57:40;;;;;;;3.90;1.90;;;16.50;53.70;;;;;;5096327;28;20173;-73
2022/05/04 06:00:07;;;;;;;3.47;2.05;;;16.50;53.70;;;;;;5095739;28;20229;-73
2022/05/04 06:02:33;;;;;;;6.68;2.17;;;16.50;53.70;;;;;;5096720;28;20533;-72
2022/05/04 06:04:58;;;;;;;5.25;2.10;;;16.60;53.90;;;;;;5096244;28;20185;-72
2022/05/04 06:07:24;;;;;;;5.47;1.95;;;16.70;54.00;;;;;;5095835;28;20186;-70
2022/05/04 06:09:50;;;;;;;5.32;1.85;;;16.70;53.90;;;;;;5096224;28;20504;-69
2022/05/04 06:12:15;;;;;;;4.85;2.20;;;16.80;53.80;;;;;;5096289;28;20222;-69
2022/05/04 06:14:41;;;;;;;2.88;1.77;;;16.80;53.70;;;;;;5095117;28;20186;-69
2022/05/04 06:17:06;;;;;;;2.88;1.70;;;16.90;53.80;;;;;;5096045;28;20664;-69
2022/05/04 06:19:32;;;;;;;2.50;1.50;;;16.90;53.80;;;;;;5096045;28;20174;-70
2022/05/04 06:21:58;;;;;;;3.40;1.80;;;17.00;53.80;;;;;;5095276;28;20201;-70
2022/05/04 06:24:25;;;;;;;3.67;1.70;;;17.00;53.80;;;;;;5096150;28;20180;-68
2022/05/04 06:26:51;;;;;;;2.30;1.88;;;17.00;53.80;;;;;;5095795;28;20210;-68
2022/05/04 06:29:16;;;;;;;6.65;1.63;;;17.10;54.00;;;;;;5095227;28;20196;-68
2022/05/04 06:34:26;;;;;;;4.63;1.67;;;17.10;53.70;;;;;;5095184;28;20165;-73
2022/05/04 06:36:51;;;;;;;3.95;1.95;;;17.10;53.80;;;;;;5095633;28;20193;-73
2022/05/04 06:39:16;;;;;;;3.25;1.90;;;17.10;53.60;;;;;;5096064;28;20303;-73
2022/05/04 06:41:42;;;;;;;4.60;1.77;;;17.20;53.60;;;;;;5095022;28;20170;-73
2022/05/04 06:44:08;;;;;;;5.75;2.00;;;17.30;53.60;;;;;;5095899;28;20174;-72
2022/05/04 06:46:38;;;;;;;4.03;1.85;;;17.40;53.50;;;;;;5094410;28;20197;-71
2022/05/04 06:49:04;;;;;;;3.60;1.70;;;17.50;53.40;;;;;;5094838;28;20174;-70
2022/05/04 06:51:29;;;;;;;5.50;1.88;;;17.60;53.30;;;;;;5095609;28;20174;-71
2022/05/04 06:53:55;;;;;;;4.20;1.80;;;17.70;53.10;;;;;;5095392;28;20581;-71
2022/05/04 06:56:20;;;;;;;5.82;1.70;;;17.80;53.00;;;;;;5094781;28;20636;-73
2022/05/04 06:58:46;;;;;;;6.63;1.52;;;17.90;53.00;;;;;;5095033;28;20216;-73
2022/05/04 07:01:12;;;;;;;3.63;1.58;;;18.00;52.80;;;;;;5095381;28;20177;-73
2022/05/04 07:03:38;;;;;;;1.95;1.50;;;18.10;52.80;;;;;;5094409;28;20522;-73
2022/05/04 07:06:04;;;;;;;6.32;2.03;;;18.20;52.70;;;;;;5095375;28;20301;-73
2022/05/04 07:08:30;;;;;;;2.97;1.65;;;18.20;52.60;;;;;;5095363;28;20170;-71
2022/05/04 07:10:55;;;;;;;2.90;1.77;;;18.40;52.30;;;;;;5094234;28;20702;-72
2022/05/04 07:13:21;;;;;;;3.17;1.45;;;18.40;52.30;;;;;;5095325;28;20588;-71
2022/05/04 07:15:47;;;;;;;3.40;1.92;;;18.30;52.20;;;;;;5094752;28;20637;-71
2022/05/04 07:18:12;;;;;;;3.95;1.90;;;18.30;52.20;;;;;;5094419;28;20174;-72
2022/05/04 07:20:38;;;;;;;3.45;1.50;;;18.30;52.30;;;;;;5094759;28;20196;-72
2022/05/04 07:23:06;;;;;;;6.55;1.70;;;18.30;52.40;;;;;;5094895;28;20532;-72
2022/05/04 07:25:32;;;;;;;3.42;1.70;;;18.30;52.40;;;;;;5094077;28;20228;-72
2022/05/04 07:27:59;;;;;;;3.88;1.80;;;18.20;52.40;;;;;;5094562;28;20170;-72
2022/05/04 07:30:24;;;;;;;3.10;1.50;;;18.20;52.40;;;;;;5094641;28;20194;-71
2022/05/04 07:32:50;;;;;;;2.75;1.52;;;18.20;52.40;;;;;;5093916;28;20235;-73
2022/05/04 07:35:17;;;;;;;4.07;1.63;;;18.10;52.40;;;;;;5094635;28;20197;-72
2022/05/04 07:37:43;;;;;;;5.18;1.80;;;18.10;52.60;;;;;;5093622;28;20174;-73
2022/05/04 07:42:53;;;;;;;5.05;1.67;;;17.90;52.80;;;;;;5094227;28;20224;-70
2022/05/04 07:45:18;;;;;;;2.85;1.70;;;17.90;53.00;;;;;;5093948;28;20201;-69
2022/05/04 07:47:44;;;;;;;3.88;2.17;;;17.90;53.00;;;;;;5094295;28;20177;-69
2022/05/04 07:50:11;;;;;;;4.00;2.30;;;17.90;53.00;;;;;;5094591;28;20211;-70
2022/05/04 07:52:37;;;;;;;3.10;1.50;;;17.90;53.00;;;;;;5093227;28;20268;-70
2022/05/04 07:55:03;;;;;;;6.32;2.22;;;18.00;53.10;;;;;;5094198;28;20204;-65
2022/05/04 07:57:28;;;;;;;5.90;1.90;;;18.00;53.20;;;;;;5093819;28;20194;-72
2022/05/04 08:05:22;;;;;;;5.18;1.70;;;18.00;53.30;;;;;;5094528;28;20250;-70
2022/05/04 08:07:48;;;;;;;3.50;1.40;;;18.00;53.40;;;;;;5092830;28;20181;-72
2022/05/04 08:10:13;;;;;;;4.47;2.35;;;17.90;53.40;;;;;;5094215;28;20170;-72
2022/05/04 08:12:39;;;;;;;3.03;1.63;;;17.90;53.40;;;;;;5093839;28;20189;-71
2022/05/04 08:15:05;;;;;;;3.60;1.63;;;17.90;53.60;;;;;;5093493;28;20256;-72
2022/05/04 08:17:31;;;;;;;3.08;1.40;;;17.90;53.50;;;;;;5093881;28;20182;-72
2022/05/04 08:20:03;;;;;;;2.85;1.70;;;17.90;53.50;;;;;;5092833;28;20674;-72
2022/05/04 08:22:28;;;;;;;2.60;1.60;;;17.90;53.50;;;;;;5093613;28;20644;-72
2022/05/04 08:24:54;;;;;;;3.40;1.85;;;17.90;53.50;;;;;;5093539;28;20312;-73
2022/05/04 08:27:20;;;;;;;3.05;1.30;;;17.90;53.50;;;;;;5092918;28;20684;-73
2022/05/04 08:29:45;;;;;;;3.33;1.52;;;17.90;53.50;;;;;;5093345;28;20671;-73
2022/05/04 08:32:11;;;;;;;4.68;1.92;;;17.90;53.40;;;;;;5093651;28;20590;-74
2022/05/04 08:34:36;;;;;;;2.90;1.80;;;18.00;53.40;;;;;;5092612;28;20205;-73
2022/05/04 08:37:02;;;;;;;2.75;1.80;;;18.00;53.40;;;;;;5093407;28;20169;-73
2022/05/04 08:39:27;;;;;;;2.88;1.58;;;18.00;53.30;;;;;;5093677;28;20194;-73
2022/05/04 08:41:53;;;;;;;2.80;1.77;;;18.00;53.90;;;;;;5092441;28;20659;-73
2022/05/04 08:44:19;;;;;;;3.28;1.50;;;18.00;53.40;;;;;;5092009;28;20205;-73
2022/05/04 08:46:44;;;;;;;2.90;1.50;;;18.00;53.30;;;;;;5091908;28;20208;-72
2022/05/04 08:49:12;;;;;;;5.40;1.90;;;18.00;53.30;;;;;;5092598;28;20189;-71
2022/05/04 08:51:38;;;;;;;4.45;1.80;;;18.10;53.20;;;;;;5092804;28;20671;-72
2022/05/04 08:54:04;;;;;;;2.95;1.83;;;18.10;53.20;;;;;;5093270;28;20177;-73
2022/05/04 08:56:31;;;;;;;2.25;1.30;;;18.10;53.10;;;;;;5092126;28;20234;-74
2022/05/04 08:58:56;;;;;;;4.25;1.73;;;18.20;53.10;;;;;;5092802;28;20230;-74
2022/05/04 09:01:24;;;;;;;3.35;1.77;;;18.20;53.20;;;;;;5093180;28;20259;-74
2022/05/04 09:03:49;;;;;;;3.25;1.60;;;18.20;53.10;;;;;;5092037;28;20227;-73
2022/05/04 09:06:26;;;;;;;1.98;1.83;;;18.20;53.00;;;;;;5092844;28;20217;-73
2022/05/04 09:09:10;;;;;;;3.05;1.40;;;18.20;53.00;;;;;;5092593;28;20760;-72
2022/05/04 09:11:39;;;;;;;2.20;1.60;;;18.20;53.00;;;;;;5092027;28;20648;-74
2022/05/04 09:14:08;;;;;;;2.50;1.73;;;18.20;53.00;;;;;;5092839;28;20598;-72
2022/05/04 09:16:34;;;;;;;4.38;1.73;;;18.20;53.00;;;;;;5092027;28;20234;-73
2022/05/04 09:19:21;;;;;;;2.67;1.73;;;18.20;53.00;;;;;;5092925;28;20585;-73
2022/05/04 09:21:49;;;;;;;3.22;1.70;;;18.20;53.10;;;;;;5092247;28;20640;-70
2022/05/04 09:24:15;;;;;;;2.80;1.50;;;18.30;53.10;;;;;;5092189;28;20176;-71
2022/05/04 09:26:42;;;;;;;4.57;1.92;;;18.30;53.00;;;;;;5092377;28;20684;-71
2022/05/04 09:29:08;;;;;;;3.83;1.60;;;18.40;53.00;;;;;;5092845;28;20174;-69
2022/05/04 09:31:34;;;;;;;3.03;1.42;;;18.40;52.90;;;;;;5090706;28;20177;-74
2022/05/04 09:34:06;;;;;;;5.38;1.95;;;18.40;52.80;;;;;;5091018;28;20249;-74
2022/05/04 09:36:36;;;;;;;2.70;1.90;;;18.40;52.90;;;;;;5092783;28;20250;-73
2022/05/04 09:45:13;;;;;;;4.75;1.27;;;18.40;53.00;;;;;;5091795;28;20631;-74
2022/05/04 09:47:44;;;;;;;3.90;1.90;;;18.40;53.10;;;;;;5092207;28;20217;-74
2022/05/04 09:50:09;;;;;;;3.17;1.50;;;18.40;53.10;;;;;;5092698;28;20252;-74
2022/05/04 09:52:48;;;;;;;4.10;1.83;;;18.40;53.10;;;;;;5091845;28;20268;-74
2022/05/04 09:55:19;;;;;;;3.08;1.48;;;18.40;53.10;;;;;;5092384;28;20636;-73
2022/05/04 09:57:45;;;;;;;3.67;1.58;;;18.40;53.10;;;;;;5092067;28;20193;-72
2022/05/04 10:00:13;;;;;;;4.05;1.60;;;18.50;53.20;;;;;;5091285;28;20308;-73
2022/05/04 10:02:39;;;;;;;4.65;1.50;;;18.40;53.10;;;;;;5091888;28;20643;-73
2022/05/04 10:05:04;;;;;;;3.05;1.83;;;18.50;53.10;;;;;;5092581;28;20182;-73
2022/05/04 10:07:30;;;;;;;2.90;1.25;;;18.50;53.10;;;;;;5090270;28;20239;-74
2022/05/04 10:09:56;;;;;;;2.50;1.30;;;18.50;53.10;;;;;;5090778;28;20303;-75
2022/05/04 10:12:21;;;;;;;3.60;1.67;;;18.50;53.00;;;;;;5091764;28;20178;-75
2022/05/04 10:14:47;;;;;;;3.35;1.58;;;18.60;53.00;;;;;;5090694;28;20174;-74
2022/05/04 10:17:14;;;;;;;2.50;1.58;;;18.60;53.00;;;;;;5091271;28;20173;-75
2022/05/04 10:19:51;;;;;;;2.40;1.33;;;18.60;53.00;;;;;;5091344;28;20192;-75
2022/05/04 10:22:21;;;;;;;3.90;1.92;;;18.60;53.00;;;;;;5093447;28;20648;-74
2022/05/04 10:24:46;;;;;;;2.53;1.63;;;18.60;52.80;;;;;;5094437;28;20184;-74
2022/05/04 10:27:21;;;;;;;2.65;1.50;;;18.60;52.80;;;;;;5093850;28;20213;-74
2022/05/04 10:32:38;;;;;;;5.60;1.67;;;18.60;52.80;;;;;;5094791;28;20259;-70
2022/05/04 10:35:28;;;;;;;5.53;1.75;;;18.70;52.90;;;;;;5095195;28;20254;-71
2022/05/04 10:37:59;;;;;;;2.33;1.38;;;18.70;52.80;;;;;;5094323;28;20264;-70
2022/05/04 10:40:34;;;;;;;2.85;1.48;;;18.70;52.90;;;;;;5095274;28;20228;-70
2022/05/04 10:43:02;;;;;;;4.20;1.35;;;18.70;53.60;;;;;;5095805;28;20181;-69
2022/05/04 10:45:40;;;;;;;2.33;1.30;;;18.70;53.00;;;;;;5095656;28;20198;-69
2022/05/04 10:48:18;;;;;;;3.70;1.40;;;18.70;53.00;;;;;;5094774;28;20545;-69
2022/05/04 10:50:55;;;;;;;4.40;1.83;;;18.80;53.00;;;;;;5095127;28;20613;-69
2022/05/04 10:53:24;;;;;;;3.50;1.75;;;18.80;53.60;;;;;;5095531;28;20178;-69
2022/05/04 10:56:01;;;;;;;1.80;1.25;;;18.70;53.00;;;;;;5094313;28;20173;-70
2022/05/04 10:58:29;;;;;;;4.60;1.60;;;18.80;53.00;;;;;;5095264;28;20245;-70
2022/05/04 11:01:31;;;;;;;8.63;1.77;;;18.70;52.90;;;;;;5095212;28;20252;-69
2022/05/04 11:04:11;;;;;;;3.78;1.63;;;18.80;52.90;;;;;;5032692;28;20179;-71
2022/05/04 11:06:39;;;;;;;4.13;1.60;;;18.70;52.80;;;;;;5088194;28;20229;-69
2022/05/04 11:09:15;;;;;;;4.95;1.52;;;18.80;52.90;;;;;;5094434;28;20184;-69
2022/05/04 11:11:46;;;;;;;2.05;1.67;;;18.70;52.80;;;;;;5094341;28;20214;-70
2022/05/04 11:14:12;;;;;;;4.18;1.52;;;18.80;52.90;;;;;;5095006;28;20181;-71
2022/05/04 11:16:38;;;;;;;3.95;1.70;;;18.80;52.80;;;;;;5093918;28;20185;-70
2022/05/04 11:19:04;;;;;;;4.78;1.40;;;18.80;52.90;;;;;;5094992;28;20205;-69
2022/05/04 11:21:30;;;;;;;3.53;1.50;;;18.80;52.90;;;;;;5094845;28;20544;-70
2022/05/04 11:23:57;;;;;;;3.35;1.83;;;18.80;52.90;;;;;;5094080;28;20701;-69
2022/05/04 11:26:24;;;;;;;3.67;1.70;;;18.80;52.90;;;;;;5094839;28;20249;-70
2022/05/04 11:28:50;;;;;;;3.45;1.60;;;18.80;52.80;;;;;;5094622;28;20194;-71
2022/05/04 11:31:17;;;;;;;13.98;2.97;;;18.80;52.80;;;;;;5094142;28;20182;-69
2022/05/04 11:33:46;;;;;;;5.18;1.50;;;18.90;52.90;;;;;;5093537;28;20196;-70
2022/05/04 11:36:12;;;;;;;5.28;1.75;;;18.90;52.80;;;;;;5094449;28;20181;-70
2022/05/04 11:38:38;;;;;;;2.88;1.40;;;18.90;52.80;;;;;;5093738;28;20223;-69
2022/05/04 11:41:04;;;;;;;4.65;1.50;;;18.80;52.70;;;;;;5094566;28;20215;-70
2022/05/04 11:43:33;;;;;;;2.92;1.40;;;18.80;52.70;;;;;;5094430;28;20173;-69
2022/05/04 11:46:07;;;;;;;3.65;1.65;;;18.80;52.70;;;;;;5093328;28;20258;-69
2022/05/04 11:48:35;;;;;;;6.22;1.52;;;18.90;52.70;;;;;;5093484;28;20162;-69
2022/05/04 11:51:00;;;;;;;7.55;2.03;;;18.90;52.60;;;;;;5093778;28;20185;-69
2022/05/04 11:53:26;;;;;;;4.63;1.73;;;18.90;52.60;;;;;;5094598;28;20566;-68
2022/05/04 11:55:52;;;;;;;6.72;1.58;;;18.90;52.50;;;;;;5094127;28;20239;-71
2022/05/04 11:58:17;;;;;;;4.65;1.95;;;19.00;53.20;;;;;;5092842;28;20176;-73
2022/05/04 12:00:43;;;;;;;6.47;2.17;;;19.00;52.40;;;;;;5093895;28;20602;-72
2022/05/04 12:03:09;;;;;;;4.65;1.80;;;19.00;52.90;;;;;;5094048;28;20227;-72
2022/05/04 12:05:34;;;;;;;3.85;2.00;;;19.00;52.20;;;;;;5092376;28;20216;-72
2022/05/04 12:08:00;;;;;;;3.90;1.85;;;19.10;52.20;;;;;;5092969;28;20173;-72
2022/05/04 12:10:27;;;;;;;3.63;1.67;;;19.10;52.00;;;;;;5094131;28;20200;-72
2022/05/04 12:12:53;;;;;;;5.78;1.80;;;19.20;51.90;;;;;;5092968;28;20177;-72
2022/05/04 12:15:21;;;;;;;4.65;1.67;;;19.20;51.90;;;;;;5093888;28;20190;-72
2022/05/04 12:17:46;;;;;;;4.10;1.48;;;19.20;51.80;;;;;;5092248;28;20193;-73
2022/05/04 12:20:12;;;;;;;3.72;1.70;;;19.20;51.70;;;;;;5093151;28;20189;-73
2022/05/04 12:22:38;;;;;;;4.28;1.90;;;19.20;51.70;;;;;;5093998;28;20257;-73
2022/05/04 12:25:04;;;;;;;5.07;2.13;;;19.20;51.60;;;;;;5093373;28;20173;-71
2022/05/04 12:27:34;;;;;;;2.53;1.73;;;19.20;51.50;;;;;;5092707;28;20217;-72
2022/05/04 12:35:32;;;;;;;8.95;5.93;;;19.30;51.60;;;;;;5093856;28;20201;-70
2022/05/04 12:37:58;;;;;;;12.02;7.88;;;19.30;51.50;;;;;;5093137;28;20217;-71
2022/05/04 12:40:25;;;;;;;11.55;7.63;;;19.30;51.40;;;;;;5091781;28;20182;-70
2022/05/04 12:42:51;;;;;;;9.73;7.55;;;19.40;51.30;;;;;;5092892;28;20543;-69
2022/05/04 12:45:17;;;;;;;11.18;7.70;;;19.40;51.10;;;;;;5092174;28;20182;-69
2022/05/04 12:47:43;;;;;;;11.80;7.57;;;19.40;51.10;;;;;;5092378;28;20209;-69
2022/05/04 12:50:09;;;;;;;7.90;6.57;;;19.40;50.90;;;;;;5093371;28;20181;-69
2022/05/04 12:52:38;;;;;;;9.50;7.53;;;19.50;50.90;;;;;;5093066;28;20212;-69
2022/05/04 12:55:04;;;;;;;9.80;6.97;;;19.50;50.90;;;;;;5092494;28;20521;-71
2022/05/04 12:57:30;;;;;;;10.63;7.38;;;19.50;50.80;;;;;;5092978;28;20581;-71
2022/05/04 12:59:56;;;;;;;8.43;6.70;;;19.50;50.80;;;;;;5092618;28;20312;-70
2022/05/04 13:02:21;;;;;;;7.45;6.72;;;19.50;50.70;;;;;;5092186;28;20173;-72
2022/05/04 13:04:46;;;;;;;9.30;6.43;;;19.60;50.70;;;;;;5074519;28;20279;-70
2022/05/04 13:07:12;;;;;;;8.15;6.30;;;19.60;50.70;;;;;;5092890;28;20233;-72
2022/05/04 13:09:38;;;;;;;10.98;7.07;;;19.60;50.60;;;;;;5092026;28;20170;-69
2022/05/04 13:12:04;;;;;;;8.98;7.25;;;19.70;50.60;;;;;;5092823;28;20644;-71
2022/05/04 13:14:29;;;;;;;9.45;6.38;;;19.70;50.60;;;;;;5093080;28;20185;-70
2022/05/04 13:16:55;;;;;;;7.95;5.78;;;19.70;50.50;;;;;;5091789;28;20181;-70
2022/05/04 13:19:21;;;;;;;8.52;6.03;;;19.70;50.40;;;;;;5092788;28;20640;-72
2022/05/04 13:21:46;;;;;;;6.47;5.35;;;19.60;50.60;;;;;;5092605;28;20177;-70